Eckard, Illinois
Current Conditions -  °F | °C
As of 4:54 AM on Saturday 20 Dec 2014 (Local Time) from KPIA Reporting Station
Haze Haze  
Wind Chill: 29°   Ceiling: 5500
Heat Index: 29°   Visibility: 6mi
Dew Point: 24°   Wind: 0mph
Humidity: 82%   Direction: NA
Pressure: 30.26"   Gusts: NA
Location:  40.2774°N, 90.0095°W
Report Text: KPIA 201054Z 00000KT 6SM HZ OVC055 M02/M04 A3026 RMK AO2 SLP255 T10171044
Loading
Personal Weather Stations






























Interactive Weather Map New forecast layout! Learn more

10-Day Weather Forecast

Advertisements
Track Severe Weather on mobile